Terminal Aerodrome Forecast
Issued by NWS Memphis, TN

Home | Current Version | Previous Version | Text Only | Print | Product List | Glossary On
Versions: 1 2 3 4 5 6 7 8 9 10 11 12 13 14 15 16 17 18
973
FTUS44 KMEG 310530
TAFMKL
TAF
KMKL 310530Z 3106/0106 00000KT P6SM SCT250
      TEMPO 3108/3112 1SM BR
     FM311300 24005KT P6SM VCTS SCT040CB BKN250
     FM010100 VRB02KT P6SM VCTS SCT040CB BKN250=

USA.gov is the U.S. government's official web portal to all federal, state and local government web resources and services.